createdAt,value
2018-09-03T00:02:19.059Z,99.9
2018-09-03T00:07:21.710Z,99.9
2018-09-03T00:12:23.999Z,99.9
2018-09-03T00:17:26.584Z,99.9
2018-09-03T00:27:31.503Z,99.9
2018-09-03T00:32:36.807Z,99.9
2018-09-03T00:37:36.464Z,99.9
2018-09-03T00:42:40.176Z,99.9
2018-09-03T00:47:41.201Z,99.9
2018-09-03T00:57:54.003Z,99.9
2018-09-03T01:02:48.600Z,99.9
2018-09-03T01:07:51.151Z,99.9
2018-09-03T01:12:53.472Z,99.9
2018-09-03T01:18:13.196Z,99.9
2018-09-03T01:23:32.523Z,99.9
2018-09-03T01:28:10.605Z,99.9
2018-09-03T01:33:09.667Z,99.9
2018-09-03T01:38:25.497Z,99.9
2018-09-03T01:43:58.776Z,99.9
2018-09-03T01:53:13.152Z,99.9
2018-09-03T01:58:29.850Z,99.9
2018-09-03T02:04:21.285Z,99.9
2018-09-03T02:13:28.690Z,99.9
2018-09-03T02:23:27.903Z,99.9
2018-09-03T02:28:37.194Z,99.9
2018-09-03T02:33:32.900Z,99.9
2018-09-03T02:38:35.260Z,99.9
2018-09-03T02:43:37.817Z,99.9
2018-09-03T02:48:53.003Z,99.9
2018-09-03T02:53:52.300Z,99.9
2018-09-03T02:58:45.104Z,99.9
2018-09-03T03:03:47.597Z,99.9
2018-09-03T03:08:50.007Z,99.9
2018-09-03T03:13:52.523Z,99.9
2018-09-03T03:18:54.933Z,99.9
2018-09-03T03:23:58.028Z,99.9
2018-09-03T03:28:59.836Z,99.9
2018-09-03T03:34:02.305Z,99.9
2018-09-03T03:39:09.013Z,99.9
2018-09-03T03:54:12.147Z,99.9
2018-09-03T03:59:14.585Z,99.9
2018-09-03T04:04:27.993Z,99.9
2018-09-03T04:10:28.144Z,99.9
2018-09-03T04:14:22.130Z,99.9
2018-09-03T04:19:26.336Z,99.9
2018-09-03T04:24:26.955Z,99.9
2018-09-03T04:29:29.368Z,99.9
2018-09-03T04:34:32.402Z,99.9
2018-09-03T04:39:34.280Z,99.9
2018-09-03T04:44:36.745Z,99.9
2018-09-03T04:49:39.334Z,99.9
2018-09-03T04:54:41.866Z,99.9
2018-09-03T04:59:44.100Z,99.9
2018-09-03T05:04:46.558Z,99.9
2018-09-03T05:09:49.016Z,99.9
2018-09-03T05:14:51.497Z,99.9
2018-09-03T05:19:59.325Z,99.9
2018-09-03T05:24:57.351Z,99.9
2018-09-03T05:29:58.849Z,99.9
2018-09-03T05:35:02.550Z,99.9
2018-09-03T05:40:04.444Z,99.9
2018-09-03T05:45:06.434Z,99.9
2018-09-03T05:50:08.919Z,99.9
2018-09-03T05:55:11.256Z,99.9
2018-09-03T06:00:13.709Z,99.9
2018-09-03T06:05:16.247Z,99.9
2018-09-03T06:10:18.533Z,99.9
2018-09-03T06:15:21.206Z,99.9
2018-09-03T06:20:23.527Z,99.9
2018-09-03T06:25:25.895Z,99.9
2018-09-03T06:30:28.549Z,99.9
2018-09-03T06:35:30.846Z,99.9
2018-09-03T06:40:33.274Z,99.9
2018-09-03T06:45:35.719Z,99.9
2018-09-03T06:50:38.190Z,99.9
2018-09-03T06:55:40.673Z,99.9
2018-09-03T07:05:45.719Z,99.9
2018-09-03T07:10:48.024Z,99.9
2018-09-03T07:15:50.621Z,99.9
2018-09-03T07:20:54.004Z,99.9
2018-09-03T07:25:55.404Z,99.9
2018-09-03T07:30:58.733Z,99.9
2018-09-03T07:36:00.369Z,99.9
2018-09-03T07:41:02.769Z,99.9
2018-09-03T07:46:05.254Z,99.9
2018-09-03T07:51:07.811Z,99.9
2018-09-03T07:56:10.217Z,99.9
2018-09-03T08:01:12.721Z,99.9
2018-09-03T08:06:15.128Z,99.9
2018-09-03T08:11:17.500Z,99.9
2018-09-03T08:16:59.297Z,99.9
2018-09-03T08:21:27.386Z,99.9
2018-09-03T08:26:27.156Z,99.9
2018-09-03T08:31:28.135Z,99.9
2018-09-03T08:36:29.822Z,99.9
2018-09-03T08:41:54.008Z,99.9
2018-09-03T08:51:37.407Z,99.9
2018-09-03T08:56:39.805Z,99.9
2018-09-03T09:01:47.761Z,99.9
2018-09-03T09:06:51.417Z,99.9
2018-09-03T09:16:49.566Z,99.9
2018-09-03T09:21:52.109Z,99.9
2018-09-03T09:26:54.644Z,99.9
2018-09-03T09:31:56.997Z,99.9
2018-09-03T09:36:59.367Z,99.9
2018-09-03T09:42:01.938Z,99.9
2018-09-03T09:47:04.327Z,99.9
2018-09-03T09:52:06.671Z,99.9
2018-09-03T09:57:09.134Z,99.9
2018-09-03T10:02:11.640Z,99.9
2018-09-03T10:07:14.313Z,99.9
2018-09-03T10:12:16.512Z,99.9
2018-09-03T10:22:21.445Z,99.9
2018-09-03T10:27:23.901Z,99.9
2018-09-03T10:32:26.373Z,99.9
2018-09-03T10:37:28.803Z,99.9
2018-09-03T10:42:31.300Z,99.9
2018-09-03T10:47:33.795Z,99.9
2018-09-03T10:52:36.172Z,99.9
2018-09-03T10:57:38.923Z,99.9
2018-09-03T11:02:41.399Z,99.9
2018-09-03T11:07:43.711Z,99.9
2018-09-03T11:12:46.030Z,99.9
2018-09-03T11:17:48.611Z,99.9
2018-09-03T11:22:50.968Z,99.9
2018-09-03T11:27:53.392Z,99.9
2018-09-03T11:32:55.929Z,99.9
2018-09-03T11:37:58.297Z,99.9
2018-09-03T11:43:01.064Z,99.9
2018-09-03T11:48:03.232Z,99.9
2018-09-03T11:53:05.680Z,99.9
2018-09-03T12:03:11.404Z,99.9
2018-09-03T12:08:13.055Z,99.9
2018-09-03T12:13:15.547Z,99.9
2018-09-03T12:18:17.971Z,99.9
2018-09-03T12:23:20.432Z,99.9
2018-09-03T12:28:23.111Z,99.9
2018-09-03T12:33:25.337Z,99.9
2018-09-03T12:38:27.814Z,99.2
2018-09-03T12:43:30.278Z,99.9
2018-09-03T12:48:32.725Z,99.9
2018-09-03T12:53:35.202Z,94.9
2018-09-03T12:58:37.797Z,95.7
2018-09-03T13:03:40.106Z,91
2018-09-03T13:08:42.558Z,92.9
2018-09-03T13:13:45.080Z,79.3
2018-09-03T13:18:47.520Z,87.6
2018-09-03T13:23:49.944Z,92.2
2018-09-03T13:28:52.384Z,98.1
2018-09-03T13:33:54.936Z,99.9
2018-09-03T13:38:57.321Z,99.9
2018-09-03T13:43:59.807Z,99.9
2018-09-03T13:49:02.226Z,99.9
2018-09-03T13:54:04.679Z,99.9
2018-09-03T13:59:07.192Z,99.9
2018-09-03T14:04:09.607Z,99.9
2018-09-03T14:09:12.176Z,99.9
2018-09-03T14:14:15.113Z,99.9
2018-09-03T14:19:17.079Z,99.9
2018-09-03T14:24:19.436Z,99.9
2018-09-03T14:29:22.137Z,99.9
2018-09-03T14:34:24.800Z,99.9
2018-09-03T14:39:26.820Z,99.9
2018-09-03T14:44:29.283Z,99.9
2018-09-03T14:49:31.750Z,99.9
2018-09-03T14:54:34.183Z,98.1
2018-09-03T14:59:36.677Z,95.1
2018-09-03T15:04:39.100Z,99.9
2018-09-03T15:09:41.574Z,99.9
2018-09-03T15:14:44.080Z,99.9
2018-09-03T15:19:46.639Z,99.9
2018-09-03T15:24:48.945Z,99.9
2018-09-03T15:29:51.667Z,99.9
2018-09-03T15:34:53.904Z,99.9
2018-09-03T15:39:56.326Z,99.9
2018-09-03T15:44:58.873Z,99.9
2018-09-03T15:50:01.329Z,99.9
2018-09-03T15:55:03.832Z,99.9
2018-09-03T16:00:06.337Z,99.9
2018-09-03T16:05:08.647Z,99.9
2018-09-03T16:10:11.396Z,99.9
2018-09-03T16:15:13.553Z,99.9
2018-09-03T16:20:15.981Z,99.9
2018-09-03T16:25:18.670Z,99.9
2018-09-03T16:30:21.024Z,99.9
2018-09-03T16:35:23.375Z,99.9
2018-09-03T16:40:25.840Z,99.9
2018-09-03T16:45:28.285Z,99.9
2018-09-03T16:50:30.738Z,99.9
2018-09-03T16:55:33.219Z,99.9
2018-09-03T17:00:35.675Z,99.9
2018-09-03T17:05:38.108Z,99.9
2018-09-03T17:10:40.673Z,99.9
2018-09-03T17:15:43.032Z,99.9
2018-09-03T17:20:45.497Z,99.9
2018-09-03T17:25:47.944Z,99.9
2018-09-03T17:30:50.413Z,99.9
2018-09-03T17:35:52.855Z,99.9
2018-09-03T17:40:55.341Z,99.9
2018-09-03T17:45:57.842Z,99.9
2018-09-03T17:51:00.244Z,99.9
2018-09-03T17:56:02.709Z,99.9
2018-09-03T18:01:05.157Z,99.9
2018-09-03T18:06:07.620Z,99.9
2018-09-03T18:11:10.061Z,99.9
2018-09-03T18:16:12.592Z,99.9
2018-09-03T18:21:14.983Z,99.9
2018-09-03T18:26:17.489Z,99.9
2018-09-03T18:31:19.916Z,99.9
2018-09-03T18:36:22.554Z,99.9
2018-09-03T18:41:24.820Z,99.9
2018-09-03T18:46:27.275Z,99.9
2018-09-03T18:51:29.738Z,99.9
2018-09-03T18:56:32.245Z,99.9
2018-09-03T19:01:34.779Z,99.9
2018-09-03T19:06:37.206Z,99.9
2018-09-03T19:11:39.756Z,99.9
2018-09-03T19:16:42.038Z,99.9
2018-09-03T19:21:44.513Z,99.9
2018-09-03T19:26:46.943Z,99.9
2018-09-03T19:31:49.423Z,99.9
2018-09-03T19:36:51.867Z,99.9
2018-09-03T19:41:54.334Z,99.9
2018-09-03T19:46:56.990Z,99.9
2018-09-03T19:51:59.325Z,99.9
2018-09-03T19:57:01.701Z,99.9
2018-09-03T20:02:04.147Z,99.9
2018-09-03T20:07:06.686Z,99.9
2018-09-03T20:12:09.073Z,99.9
2018-09-03T20:17:11.643Z,99.9
2018-09-03T20:22:13.999Z,99.9
2018-09-03T20:27:16.679Z,99.9
2018-09-03T20:32:18.901Z,99.9
2018-09-03T20:37:21.524Z,99.9
2018-09-03T20:42:24.449Z,99.9
2018-09-03T20:47:26.273Z,99.9
2018-09-03T20:52:28.805Z,99.9
2018-09-03T20:57:31.192Z,99.9
2018-09-03T21:02:33.796Z,99.9
2018-09-03T21:07:36.224Z,99.9
2018-09-03T21:12:38.559Z,99.9
2018-09-03T21:17:41.097Z,99.9
2018-09-03T21:22:43.504Z,99.9
2018-09-03T21:27:45.988Z,99.9
2018-09-03T21:32:48.412Z,99.9
2018-09-03T21:37:50.855Z,99.9
2018-09-03T21:42:53.363Z,99.9
2018-09-03T21:47:55.768Z,99.9
2018-09-03T21:52:58.413Z,99.9
2018-09-03T21:58:00.684Z,99.9
2018-09-03T22:03:03.144Z,99.9
2018-09-03T22:08:05.606Z,99.9
2018-09-03T22:13:08.099Z,99.9
2018-09-03T22:18:10.529Z,99.9
2018-09-03T22:23:13.021Z,99.9
2018-09-03T22:28:15.618Z,99.9
2018-09-03T22:33:17.954Z,99.9
2018-09-03T22:38:20.351Z,99.9
2018-09-03T22:43:22.943Z,99.9
2018-09-03T22:48:25.261Z,99.9
2018-09-03T22:53:27.723Z,99.9
2018-09-03T22:58:30.204Z,99.9
2018-09-03T23:03:32.721Z,99.9
2018-09-03T23:08:35.118Z,99.9
2018-09-03T23:13:37.560Z,99.9
2018-09-03T23:18:40.065Z,99.9
2018-09-03T23:23:42.511Z,99.9
2018-09-03T23:28:44.939Z,99.9
2018-09-03T23:33:47.406Z,99.9
2018-09-03T23:38:49.946Z,99.9
2018-09-03T23:43:52.731Z,99.9
2018-09-03T23:48:54.784Z,99.9
2018-09-03T23:53:57.243Z,99.9
2018-09-03T23:58:59.677Z,99.9
